sensor_id;sensor_type;location;lat;lon;timestamp;pressure;altitude;pressure_sealevel;temperature;humidity
50672;BME280;46021;55.882;37.654;2023-07-13T00:00:20;98600.53;;;11.50;73.77
50672;BME280;46021;55.882;37.654;2023-07-13T00:02:47;98596.06;;;11.52;73.47
50672;BME280;46021;55.882;37.654;2023-07-13T00:05:16;98599.44;;;11.54;73.60
50672;BME280;46021;55.882;37.654;2023-07-13T00:07:43;98586.38;;;11.54;73.68
50672;BME280;46021;55.882;37.654;2023-07-13T00:10:12;98592.56;;;11.53;73.97
50672;BME280;46021;55.882;37.654;2023-07-13T00:12:39;98589.94;;;11.53;73.57
50672;BME280;46021;55.882;37.654;2023-07-13T00:15:18;98592.56;;;11.53;73.62
50672;BME280;46021;55.882;37.654;2023-07-13T00:17:49;98589.00;;;11.54;73.49
50672;BME280;46021;55.882;37.654;2023-07-13T00:20:20;98592.56;;;11.53;74.02
50672;BME280;46021;55.882;37.654;2023-07-13T00:22:48;98590.84;;;11.52;74.08
50672;BME280;46021;55.882;37.654;2023-07-13T00:25:15;98594.56;;;11.48;73.96
50672;BME280;46021;55.882;37.654;2023-07-13T00:27:43;98589.34;;;11.48;74.33
50672;BME280;46021;55.882;37.654;2023-07-13T00:30:11;98591.00;;;11.49;74.04
50672;BME280;46021;55.882;37.654;2023-07-13T00:32:38;98586.03;;;11.44;74.72
50672;BME280;46021;55.882;37.654;2023-07-13T00:35:06;98583.44;;;11.44;74.40
50672;BME280;46021;55.882;37.654;2023-07-13T00:37:34;98584.25;;;11.45;74.41
50672;BME280;46021;55.882;37.654;2023-07-13T00:40:02;98585.97;;;11.46;74.62
50672;BME280;46021;55.882;37.654;2023-07-13T00:42:29;98585.72;;;11.50;74.82
50672;BME280;46021;55.882;37.654;2023-07-13T00:45:02;98593.72;;;11.47;74.55
50672;BME280;46021;55.882;37.654;2023-07-13T00:47:31;98594.38;;;11.51;74.25
50672;BME280;46021;55.882;37.654;2023-07-13T00:49:58;98584.03;;;11.49;74.48
50672;BME280;46021;55.882;37.654;2023-07-13T00:52:26;98580.75;;;11.46;74.61
50672;BME280;46021;55.882;37.654;2023-07-13T00:54:55;98585.47;;;11.55;74.52
50672;BME280;46021;55.882;37.654;2023-07-13T00:57:22;98581.09;;;11.56;74.19
50672;BME280;46021;55.882;37.654;2023-07-13T00:59:53;98571.50;;;11.56;74.35
50672;BME280;46021;55.882;37.654;2023-07-13T01:02:21;98575.34;;;11.49;74.57
50672;BME280;46021;55.882;37.654;2023-07-13T01:04:48;98572.66;;;11.50;74.89
50672;BME280;46021;55.882;37.654;2023-07-13T01:07:16;98569.97;;;11.52;74.68
50672;BME280;46021;55.882;37.654;2023-07-13T01:09:43;98580.41;;;11.52;74.71
50672;BME280;46021;55.882;37.654;2023-07-13T01:12:12;98569.97;;;11.52;74.95
50672;BME280;46021;55.882;37.654;2023-07-13T01:14:39;98569.97;;;11.52;75.07
50672;BME280;46021;55.882;37.654;2023-07-13T01:17:08;98575.94;;;11.54;74.74
50672;BME280;46021;55.882;37.654;2023-07-13T01:19:39;98574.34;;;11.51;75.10
50672;BME280;46021;55.882;37.654;2023-07-13T01:22:10;98568.13;;;11.54;74.69
50672;BME280;46021;55.882;37.654;2023-07-13T01:24:39;98566.25;;;11.56;74.55
50672;BME280;46021;55.882;37.654;2023-07-13T01:27:09;98565.16;;;11.60;74.74
50672;BME280;46021;55.882;37.654;2023-07-13T01:29:41;98567.78;;;11.60;74.55
50672;BME280;46021;55.882;37.654;2023-07-13T01:32:09;98567.97;;;11.57;74.82
50672;BME280;46021;55.882;37.654;2023-07-13T01:34:36;98566.88;;;11.61;74.79
50672;BME280;46021;55.882;37.654;2023-07-13T01:37:04;98568.53;;;11.62;74.60
50672;BME280;46021;55.882;37.654;2023-07-13T01:39:33;98558.84;;;11.64;74.88
50672;BME280;46021;55.882;37.654;2023-07-13T01:42:00;98561.38;;;11.66;74.80
50672;BME280;46021;55.882;37.654;2023-07-13T01:44:27;98559.47;;;11.69;74.34
50672;BME280;46021;55.882;37.654;2023-07-13T01:46:54;98556.84;;;11.69;74.35
50672;BME280;46021;55.882;37.654;2023-07-13T01:49:21;98563.56;;;11.74;74.44
50672;BME280;46021;55.882;37.654;2023-07-13T01:51:49;98562.81;;;11.71;74.24
50672;BME280;46021;55.882;37.654;2023-07-13T01:54:16;98557.69;;;11.70;74.36
50672;BME280;46021;55.882;37.654;2023-07-13T01:56:44;98563.91;;;11.67;74.86
50672;BME280;46021;55.882;37.654;2023-07-13T01:59:11;98557.69;;;11.70;74.82
50672;BME280;46021;55.882;37.654;2023-07-13T02:01:38;98546.25;;;11.73;74.57
50672;BME280;46021;55.882;37.654;2023-07-13T02:04:05;98546.06;;;11.76;74.16
50672;BME280;46021;55.882;37.654;2023-07-13T02:06:33;98548.59;;;11.77;74.16
50672;BME280;46021;55.882;37.654;2023-07-13T02:09:00;98540.75;;;11.77;74.14
50672;BME280;46021;55.882;37.654;2023-07-13T02:11:27;98538.75;;;11.82;74.01
50672;BME280;46021;55.882;37.654;2023-07-13T02:14:01;98536.97;;;11.83;74.36
50672;BME280;46021;55.882;37.654;2023-07-13T02:16:30;98533.38;;;11.85;74.00
50672;BME280;46021;55.882;37.654;2023-07-13T02:18:57;98537.31;;;11.93;74.28
50672;BME280;46021;55.882;37.654;2023-07-13T02:21:26;98533.81;;;11.94;73.84
50672;BME280;46021;55.882;37.654;2023-07-13T02:23:53;98531.28;;;11.92;73.89
50672;BME280;46021;55.882;37.654;2023-07-13T02:26:20;98531.09;;;11.95;73.72
50672;BME280;46021;55.882;37.654;2023-07-13T02:28:48;98529.50;;;11.93;74.13
50672;BME280;46021;55.882;37.654;2023-07-13T02:31:16;98531.09;;;11.95;74.16
50672;BME280;46021;55.882;37.654;2023-07-13T02:33:45;98531.09;;;11.95;74.10
50672;BME280;46021;55.882;37.654;2023-07-13T02:36:13;98531.88;;;11.97;74.19
50672;BME280;46021;55.882;37.654;2023-07-13T02:38:44;98528.41;;;11.97;74.25
50672;BME280;46021;55.882;37.654;2023-07-13T02:41:11;98533.44;;;12.00;74.06
50672;BME280;46021;55.882;37.654;2023-07-13T02:43:39;98537.84;;;11.99;74.08
50672;BME280;46021;55.882;37.654;2023-07-13T02:46:08;98539.34;;;12.03;73.64
50672;BME280;46021;55.882;37.654;2023-07-13T02:48:38;98535.91;;;12.03;73.92
50672;BME280;46021;55.882;37.654;2023-07-13T02:51:06;98536.13;;;11.98;74.04
50672;BME280;46021;55.882;37.654;2023-07-13T02:53:34;98533.44;;;12.00;73.98
50672;BME280;46021;55.882;37.654;2023-07-13T02:56:02;98520.97;;;11.89;74.38
50672;BME280;46021;55.882;37.654;2023-07-13T02:58:29;98530.91;;;11.98;74.00
50672;BME280;46021;55.882;37.654;2023-07-13T03:00:56;98530.75;;;12.01;73.82
50672;BME280;46021;55.882;37.654;2023-07-13T03:03:24;98528.16;;;12.01;73.95
50672;BME280;46021;55.882;37.654;2023-07-13T03:05:58;98523.50;;;12.06;74.75
50672;BME280;46021;55.882;37.654;2023-07-13T03:08:29;98523.50;;;12.06;73.78
50672;BME280;46021;55.882;37.654;2023-07-13T03:10:59;98522.75;;;12.04;74.42
50672;BME280;46021;55.882;37.654;2023-07-13T03:13:30;98524.34;;;12.07;74.20
50672;BME280;46021;55.882;37.654;2023-07-13T03:15:58;98520.91;;;12.06;74.15
50672;BME280;46021;55.882;37.654;2023-07-13T03:18:26;98521.66;;;12.08;73.90
50672;BME280;46021;55.882;37.654;2023-07-13T03:20:53;98520.97;;;12.05;74.31
50672;BME280;46021;55.882;37.654;2023-07-13T03:23:22;98518.28;;;12.06;74.13
50672;BME280;46021;55.882;37.654;2023-07-13T03:25:50;98521.81;;;12.05;74.47
50672;BME280;46021;55.882;37.654;2023-07-13T03:28:17;98526.88;;;12.08;73.93
50672;BME280;46021;55.882;37.654;2023-07-13T03:30:44;98524.44;;;12.05;74.03
50672;BME280;46021;55.882;37.654;2023-07-13T03:33:11;98536.56;;;12.06;74.49
50672;BME280;46021;55.882;37.654;2023-07-13T03:35:40;98540.94;;;12.06;74.80
50672;BME280;46021;55.882;37.654;2023-07-13T03:38:08;98537.50;;;12.05;74.71
50672;BME280;46021;55.882;37.654;2023-07-13T03:40:36;98528.75;;;12.06;74.28
50672;BME280;46021;55.882;37.654;2023-07-13T03:43:04;98533.78;;;12.09;74.67
50672;BME280;46021;55.882;37.654;2023-07-13T03:45:31;98537.81;;;12.15;74.67
50672;BME280;46021;55.882;37.654;2023-07-13T03:47:58;98537.47;;;12.21;74.50
50672;BME280;46021;55.882;37.654;2023-07-13T03:50:26;98542.59;;;12.23;73.96
50672;BME280;46021;55.882;37.654;2023-07-13T03:52:53;98540.84;;;12.23;74.02
50672;BME280;46021;55.882;37.654;2023-07-13T03:55:21;98526.91;;;12.23;74.09
50672;BME280;46021;55.882;37.654;2023-07-13T03:58:01;98541.16;;;12.33;74.16
50672;BME280;46021;55.882;37.654;2023-07-13T04:00:39;98540.78;;;12.39;74.06
50672;BME280;46021;55.882;37.654;2023-07-13T04:03:06;98537.06;;;12.43;74.15
50672;BME280;46021;55.882;37.654;2023-07-13T04:05:33;98542.97;;;12.47;73.87
50672;BME280;46021;55.882;37.654;2023-07-13T04:08:01;98536.53;;;12.53;73.50
50672;BME280;46021;55.882;37.654;2023-07-13T04:10:32;98547.66;;;12.56;73.30
50672;BME280;46021;55.882;37.654;2023-07-13T04:13:01;98546.75;;;12.57;73.50
50672;BME280;46021;55.882;37.654;2023-07-13T04:15:29;98543.25;;;12.57;73.65
50672;BME280;46021;55.882;37.654;2023-07-13T04:17:57;98548.50;;;12.57;73.34
50672;BME280;46021;55.882;37.654;2023-07-13T04:20:24;98538.56;;;12.47;73.47
50672;BME280;46021;55.882;37.654;2023-07-13T04:22:51;98543.63;;;12.51;73.56
50672;BME280;46021;55.882;37.654;2023-07-13T04:25:19;98541.41;;;12.59;73.43
50672;BME280;46021;55.882;37.654;2023-07-13T04:27:46;98546.28;;;12.65;73.73
50672;BME280;46021;55.882;37.654;2023-07-13T04:30:14;98559.91;;;12.70;73.09
50672;BME280;46021;55.882;37.654;2023-07-13T04:32:41;98539.38;;;12.64;73.38
50672;BME280;46021;55.882;37.654;2023-07-13T04:35:08;98543.94;;;12.60;72.96
50672;BME280;46021;55.882;37.654;2023-07-13T04:37:35;98553.03;;;12.69;72.80
50672;BME280;46021;55.882;37.654;2023-07-13T04:40:03;98545.25;;;12.67;73.24
50672;BME280;46021;55.882;37.654;2023-07-13T04:42:30;98547.63;;;12.72;73.39
50672;BME280;46021;55.882;37.654;2023-07-13T04:45:00;98544.81;;;12.75;73.22
50672;BME280;46021;55.882;37.654;2023-07-13T04:47:31;98550.63;;;12.80;73.54
50672;BME280;46021;55.882;37.654;2023-07-13T04:49:58;98550.16;;;12.88;73.19
50672;BME280;46021;55.882;37.654;2023-07-13T04:52:25;98553.16;;;12.96;73.29
50672;BME280;46021;55.882;37.654;2023-07-13T04:54:52;98557.84;;;13.05;72.80
50672;BME280;46021;55.882;37.654;2023-07-13T04:57:19;98547.13;;;13.10;72.82
50672;BME280;46021;55.882;37.654;2023-07-13T04:59:46;98537.75;;;13.20;73.01
50672;BME280;46021;55.882;37.654;2023-07-13T05:02:13;98534.75;;;13.26;72.60
50672;BME280;46021;55.882;37.654;2023-07-13T05:04:42;98537.13;;;13.31;72.20
50672;BME280;46021;55.882;37.654;2023-07-13T05:07:09;98534.66;;;13.28;72.03
50672;BME280;46021;55.882;37.654;2023-07-13T05:09:36;98541.34;;;13.34;71.77
50672;BME280;46021;55.882;37.654;2023-07-13T05:12:06;98534.84;;;13.25;71.75
50672;BME280;46021;55.882;37.654;2023-07-13T05:14:33;98545.81;;;13.32;72.05
50672;BME280;46021;55.882;37.654;2023-07-13T05:17:00;98543.78;;;13.37;71.86
50672;BME280;46021;55.882;37.654;2023-07-13T05:19:27;98543.75;;;13.51;71.56
50672;BME280;46021;55.882;37.654;2023-07-13T05:21:56;98546.53;;;13.62;71.67
50672;BME280;46021;55.882;37.654;2023-07-13T05:24:23;98551.94;;;13.74;71.10
50672;BME280;46021;55.882;37.654;2023-07-13T05:26:50;98550.72;;;13.79;70.83
50672;BME280;46021;55.882;37.654;2023-07-13T05:29:17;98548.47;;;13.88;70.50
50672;BME280;46021;55.882;37.654;2023-07-13T05:31:44;98550.03;;;13.90;70.29
50672;BME280;46021;55.882;37.654;2023-07-13T05:34:11;98537.09;;;13.74;69.42
50672;BME280;46021;55.882;37.654;2023-07-13T05:36:38;98545.09;;;13.86;69.79
50672;BME280;46021;55.882;37.654;2023-07-13T05:39:07;98534.13;;;13.93;69.62
50672;BME280;46021;55.882;37.654;2023-07-13T05:41:35;98533.53;;;14.02;69.44
50672;BME280;46021;55.882;37.654;2023-07-13T05:44:02;98533.25;;;14.07;68.81
50672;BME280;46021;55.882;37.654;2023-07-13T05:46:29;98534.31;;;14.17;68.68
50672;BME280;46021;55.882;37.654;2023-07-13T05:48:56;98533.66;;;14.14;68.54
50672;BME280;46021;55.882;37.654;2023-07-13T05:51:23;98529.94;;;14.18;68.26
50672;BME280;46021;55.882;37.654;2023-07-13T05:53:50;98524.47;;;14.21;68.02
50672;BME280;46021;55.882;37.654;2023-07-13T05:56:18;98513.81;;;14.24;68.15
50672;BME280;46021;55.882;37.654;2023-07-13T05:58:47;98519.03;;;14.24;67.78
50672;BME280;46021;55.882;37.654;2023-07-13T06:01:14;98529.75;;;14.34;67.86
50672;BME280;46021;55.882;37.654;2023-07-13T06:03:41;98519.47;;;14.58;68.04
50672;BME280;46021;55.882;37.654;2023-07-13T06:06:10;98517.16;;;14.79;67.81
50672;BME280;46021;55.882;37.654;2023-07-13T06:08:37;98517.19;;;14.92;66.51
50672;BME280;46021;55.882;37.654;2023-07-13T06:11:05;98505.94;;;14.90;66.79
50672;BME280;46021;55.882;37.654;2023-07-13T06:13:34;98508.34;;;14.93;66.10
50672;BME280;46021;55.882;37.654;2023-07-13T06:16:02;98495.88;;;14.71;65.95
50672;BME280;46021;55.882;37.654;2023-07-13T06:18:31;98499.88;;;14.76;66.34
50672;BME280;46021;55.882;37.654;2023-07-13T06:20:58;98510.34;;;14.76;66.10
50672;BME280;46021;55.882;37.654;2023-07-13T06:23:25;98514.34;;;14.82;65.79
50672;BME280;46021;55.882;37.654;2023-07-13T06:25:52;98510.78;;;14.96;66.32
50672;BME280;46021;55.882;37.654;2023-07-13T06:28:19;98507.50;;;15.18;65.92
50672;BME280;46021;55.882;37.654;2023-07-13T06:30:48;98491.50;;;15.34;66.04
50672;BME280;46021;55.882;37.654;2023-07-13T06:33:15;98502.19;;;15.56;64.93
50672;BME280;46021;55.882;37.654;2023-07-13T06:35:42;98505.59;;;15.83;65.38
50672;BME280;46021;55.882;37.654;2023-07-13T06:38:09;98507.22;;;15.96;64.00
50672;BME280;46021;55.882;37.654;2023-07-13T06:40:36;98492.69;;;16.04;62.94
50672;BME280;46021;55.882;37.654;2023-07-13T06:43:03;98501.84;;;16.22;62.45
50672;BME280;46021;55.882;37.654;2023-07-13T06:45:32;98509.16;;;16.30;62.58
50672;BME280;46021;55.882;37.654;2023-07-13T06:48:00;98508.19;;;16.31;61.80
50672;BME280;46021;55.882;37.654;2023-07-13T06:50:28;98503.50;;;16.23;61.63
50672;BME280;46021;55.882;37.654;2023-07-13T06:52:56;98499.00;;;16.01;60.61
50672;BME280;46021;55.882;37.654;2023-07-13T06:55:25;98494.03;;;15.72;60.58
50672;BME280;46021;55.882;37.654;2023-07-13T06:57:52;98497.66;;;15.58;61.55
50672;BME280;46021;55.882;37.654;2023-07-13T07:00:19;98492.66;;;15.43;61.87
50672;BME280;46021;55.882;37.654;2023-07-13T07:02:46;98494.59;;;15.28;62.12
50672;BME280;46021;55.882;37.654;2023-07-13T07:05:15;98485.16;;;15.12;62.53
50672;BME280;46021;55.882;37.654;2023-07-13T07:07:42;98489.16;;;15.05;63.22
50672;BME280;46021;55.882;37.654;2023-07-13T07:10:09;98486.81;;;15.00;63.42
50672;BME280;46021;55.882;37.654;2023-07-13T07:12:36;98499.00;;;15.01;64.02
50672;BME280;46021;55.882;37.654;2023-07-13T07:15:04;98497.94;;;15.04;64.27
50672;BME280;46021;55.882;37.654;2023-07-13T07:17:31;98506.78;;;14.90;64.85
50672;BME280;46021;55.882;37.654;2023-07-13T07:19:58;98507.00;;;15.00;64.19
50672;BME280;46021;55.882;37.654;2023-07-13T07:22:26;98522.53;;;15.03;64.30
50672;BME280;46021;55.882;37.654;2023-07-13T07:24:54;98520.22;;;15.11;64.05
50672;BME280;46021;55.882;37.654;2023-07-13T07:27:21;98518.94;;;15.17;63.79
50672;BME280;46021;55.882;37.654;2023-07-13T07:29:48;98516.75;;;15.24;64.14
50672;BME280;46021;55.882;37.654;2023-07-13T07:32:15;98513.50;;;15.20;64.26
50672;BME280;46021;55.882;37.654;2023-07-13T07:34:42;98521.66;;;15.15;63.37
50672;BME280;46021;55.882;37.654;2023-07-13T07:37:11;98517.47;;;15.00;63.60
50672;BME280;46021;55.882;37.654;2023-07-13T07:39:39;98518.13;;;14.91;63.90
50672;BME280;46021;55.882;37.654;2023-07-13T07:42:07;98521.06;;;14.86;64.43
50672;BME280;46021;55.882;37.654;2023-07-13T07:44:34;98518.72;;;14.81;64.21
50672;BME280;46021;55.882;37.654;2023-07-13T07:47:01;98519.47;;;14.71;64.31
50672;BME280;46021;55.882;37.654;2023-07-13T07:49:28;98533.44;;;14.71;65.07
50672;BME280;46021;55.882;37.654;2023-07-13T07:51:55;98534.88;;;14.62;64.87
50672;BME280;46021;55.882;37.654;2023-07-13T07:54:22;98531.47;;;14.48;64.95
50672;BME280;46021;55.882;37.654;2023-07-13T07:56:50;98524.00;;;14.41;65.43
50672;BME280;46021;55.882;37.654;2023-07-13T07:59:18;98526.69;;;14.27;65.89
50672;BME280;46021;55.882;37.654;2023-07-13T08:01:45;98516.97;;;14.29;66.09
50672;BME280;46021;55.882;37.654;2023-07-13T08:04:13;98527.81;;;14.23;66.40
50672;BME280;46021;55.882;37.654;2023-07-13T08:06:40;98524.47;;;14.21;66.45
50672;BME280;46021;55.882;37.654;2023-07-13T08:09:07;98521.94;;;14.19;66.80
50672;BME280;46021;55.882;37.654;2023-07-13T08:11:34;98528.06;;;14.20;66.71
50672;BME280;46021;55.882;37.654;2023-07-13T08:14:03;98523.41;;;14.11;67.64
50672;BME280;46021;55.882;37.654;2023-07-13T08:16:30;98522.81;;;14.20;67.33
50672;BME280;46021;55.882;37.654;2023-07-13T08:18:58;98523.03;;;14.30;67.33
50672;BME280;46021;55.882;37.654;2023-07-13T08:21:25;98518.75;;;14.41;67.20
50672;BME280;46021;55.882;37.654;2023-07-13T08:23:52;98516.97;;;14.42;67.45
50672;BME280;46021;55.882;37.654;2023-07-13T08:26:19;98520.97;;;14.48;67.36
50672;BME280;46021;55.882;37.654;2023-07-13T08:28:47;98513.63;;;14.53;67.03
50672;BME280;46021;55.882;37.654;2023-07-13T08:31:15;98515.00;;;14.46;67.72
50672;BME280;46021;55.882;37.654;2023-07-13T08:33:43;98525.34;;;14.34;68.33
50672;BME280;46021;55.882;37.654;2023-07-13T08:36:10;98517.28;;;14.37;67.84
50672;BME280;46021;55.882;37.654;2023-07-13T08:38:37;98520.31;;;14.31;68.31
50672;BME280;46021;55.882;37.654;2023-07-13T08:41:11;98532.28;;;14.35;68.44
50672;BME280;46021;55.882;37.654;2023-07-13T08:43:39;98514.84;;;14.34;68.64
50672;BME280;46021;55.882;37.654;2023-07-13T08:46:12;98531.69;;;14.45;68.42
50672;BME280;46021;55.882;37.654;2023-07-13T08:48:45;98529.56;;;14.37;68.87
50672;BME280;46021;55.882;37.654;2023-07-13T08:51:25;98535.84;;;14.34;68.68
50672;BME280;46021;55.882;37.654;2023-07-13T08:54:00;98533.31;;;14.33;68.68
50672;BME280;46021;55.882;37.654;2023-07-13T08:56:29;98534.34;;;14.30;68.31
50672;BME280;46021;55.882;37.654;2023-07-13T08:58:59;98539.41;;;14.33;68.61
50672;BME280;46021;55.882;37.654;2023-07-13T09:01:31;98552.56;;;14.19;69.12
50672;BME280;46021;55.882;37.654;2023-07-13T09:04:05;98546.50;;;14.18;69.13
50672;BME280;46021;55.882;37.654;2023-07-13T09:06:46;98546.63;;;14.02;69.81
50672;BME280;46021;55.882;37.654;2023-07-13T09:09:22;98550.44;;;14.11;69.70
50672;BME280;46021;55.882;37.654;2023-07-13T09:11:58;98555.69;;;14.11;70.09
50672;BME280;46021;55.882;37.654;2023-07-13T09:14:47;98552.31;;;14.09;69.97
50672;BME280;46021;55.882;37.654;2023-07-13T09:17:18;98566.31;;;13.95;70.02
50672;BME280;46021;55.882;37.654;2023-07-13T09:19:53;98559.63;;;13.77;70.95
50672;BME280;46021;55.882;37.654;2023-07-13T09:22:24;98560.53;;;13.76;71.24
50672;BME280;46021;55.882;37.654;2023-07-13T09:25:00;98571.31;;;13.71;72.05
50672;BME280;46021;55.882;37.654;2023-07-13T09:27:35;98567.66;;;13.74;71.41
50672;BME280;46021;55.882;37.654;2023-07-13T09:30:17;98557.97;;;13.61;72.67
50672;BME280;46021;55.882;37.654;2023-07-13T09:32:51;98570.69;;;13.39;73.06
50672;BME280;46021;55.882;37.654;2023-07-13T09:35:23;98550.88;;;13.35;72.25
50672;BME280;46021;55.882;37.654;2023-07-13T09:37:56;98549.28;;;13.47;72.47
50672;BME280;46021;55.882;37.654;2023-07-13T09:40:35;98549.38;;;13.59;72.89
50672;BME280;46021;55.882;37.654;2023-07-13T09:43:05;98551.41;;;13.69;72.72
50672;BME280;46021;55.882;37.654;2023-07-13T09:45:36;98558.97;;;13.73;72.72
50672;BME280;46021;55.882;37.654;2023-07-13T09:48:06;98541.47;;;13.74;72.57
50672;BME280;46021;55.882;37.654;2023-07-13T09:50:35;98550.63;;;13.81;72.56
50672;BME280;46021;55.882;37.654;2023-07-13T09:53:03;98542.59;;;13.84;72.40
50672;BME280;46021;55.882;37.654;2023-07-13T09:55:31;98533.75;;;13.85;73.01
50672;BME280;46021;55.882;37.654;2023-07-13T09:58:03;98544.47;;;13.82;73.06
50672;BME280;46021;55.882;37.654;2023-07-13T10:00:32;98530.41;;;13.83;73.28
50672;BME280;46021;55.882;37.654;2023-07-13T10:03:02;98542.75;;;13.81;73.50
50672;BME280;46021;55.882;37.654;2023-07-13T10:05:39;98540.44;;;13.76;73.37
50672;BME280;46021;55.882;37.654;2023-07-13T10:08:19;98543.72;;;13.65;74.30
50672;BME280;46021;55.882;37.654;2023-07-13T10:10:53;98546.84;;;13.58;75.15
50672;BME280;46021;55.882;37.654;2023-07-13T10:13:34;98538.91;;;13.45;75.69
50672;BME280;46021;55.882;37.654;2023-07-13T10:16:04;98542.34;;;13.45;75.58
50672;BME280;46021;55.882;37.654;2023-07-13T10:18:42;98538.53;;;13.37;76.94
50672;BME280;46021;55.882;37.654;2023-07-13T10:21:14;98538.53;;;13.37;76.57
50672;BME280;46021;55.882;37.654;2023-07-13T10:23:43;98538.72;;;13.34;77.75
50672;BME280;46021;55.882;37.654;2023-07-13T10:26:16;98532.88;;;13.29;78.07
50672;BME280;46021;55.882;37.654;2023-07-13T10:28:47;98534.97;;;13.23;78.46
50672;BME280;46021;55.882;37.654;2023-07-13T10:31:18;98547.31;;;13.21;78.23
50672;BME280;46021;55.882;37.654;2023-07-13T10:33:46;98551.66;;;13.21;78.32
50672;BME280;46021;55.882;37.654;2023-07-13T10:36:23;98540.94;;;13.11;79.07
50672;BME280;46021;55.882;37.654;2023-07-13T10:38:55;98539.72;;;13.02;79.40
50672;BME280;46021;55.882;37.654;2023-07-13T10:41:26;98535.38;;;12.87;80.28
50672;BME280;46021;55.882;37.654;2023-07-13T10:43:55;98548.16;;;12.77;81.28
50672;BME280;46021;55.882;37.654;2023-07-13T10:46:25;98545.00;;;12.72;80.91
50672;BME280;46021;55.882;37.654;2023-07-13T10:48:55;98547.03;;;12.67;81.61
50672;BME280;46021;55.882;37.654;2023-07-13T10:51:26;98555.25;;;12.61;82.24
50672;BME280;46021;55.882;37.654;2023-07-13T10:54:14;98555.41;;;12.58;82.35
50672;BME280;46021;55.882;37.654;2023-07-13T10:56:43;98558.28;;;12.53;82.78
50672;BME280;46021;55.882;37.654;2023-07-13T10:59:14;98551.59;;;12.33;82.75
50672;BME280;46021;55.882;37.654;2023-07-13T11:01:55;98557.31;;;12.40;83.19
50672;BME280;46021;55.882;37.654;2023-07-13T11:04:23;98571.84;;;12.29;83.56
50672;BME280;46021;55.882;37.654;2023-07-13T11:06:57;98570.03;;;12.16;83.29
50672;BME280;46021;55.882;37.654;2023-07-13T11:09:33;98570.34;;;12.09;83.50
50672;BME280;46021;55.882;37.654;2023-07-13T11:12:09;98557.47;;;12.06;83.58
50672;BME280;46021;55.882;37.654;2023-07-13T11:15:02;98553.34;;;12.02;83.73
50672;BME280;46021;55.882;37.654;2023-07-13T11:17:36;98560.09;;;12.06;84.40
50672;BME280;46021;55.882;37.654;2023-07-13T11:20:20;98550.00;;;12.00;83.99
50672;BME280;46021;55.882;37.654;2023-07-13T11:22:52;98557.97;;;11.97;84.88
50672;BME280;46021;55.882;37.654;2023-07-13T11:25:30;98569.53;;;11.93;84.28
50672;BME280;46021;55.882;37.654;2023-07-13T11:28:06;98559.25;;;11.90;84.86
50672;BME280;46021;55.882;37.654;2023-07-13T11:30:37;98567.31;;;11.85;84.50
50672;BME280;46021;55.882;37.654;2023-07-13T11:33:13;98568.59;;;11.94;84.90
50672;BME280;46021;55.882;37.654;2023-07-13T11:35:45;98572.13;;;11.93;85.14
50672;BME280;46021;55.882;37.654;2023-07-13T11:38:17;98579.97;;;11.93;85.05
50672;BME280;46021;55.882;37.654;2023-07-13T11:40:46;98566.06;;;11.93;85.99
50672;BME280;46021;55.882;37.654;2023-07-13T11:43:15;98580.13;;;11.90;85.90
50672;BME280;46021;55.882;37.654;2023-07-13T11:45:43;98586.50;;;11.84;86.02
50672;BME280;46021;55.882;37.654;2023-07-13T11:48:22;98580.25;;;11.87;86.18
50672;BME280;46021;55.882;37.654;2023-07-13T11:50:56;98572.28;;;11.90;86.49
50672;BME280;46021;55.882;37.654;2023-07-13T11:53:27;98578.28;;;11.92;86.99
50672;BME280;46021;55.882;37.654;2023-07-13T11:55:57;98580.72;;;11.95;87.30
50672;BME280;46021;55.882;37.654;2023-07-13T11:58:26;98579.97;;;11.93;87.42
50672;BME280;46021;55.882;37.654;2023-07-13T12:00:57;98592.41;;;12.04;87.63
50672;BME280;46021;55.882;37.654;2023-07-13T12:03:26;98588.63;;;12.09;87.65
50672;BME280;46021;55.882;37.654;2023-07-13T12:05:56;98582.31;;;12.14;88.13
50672;BME280;46021;55.882;37.654;2023-07-13T12:08:25;98586.44;;;12.18;88.48
50672;BME280;46021;55.882;37.654;2023-07-13T12:11:00;98586.53;;;12.16;88.59
50672;BME280;46021;55.882;37.654;2023-07-13T12:13:35;98581.38;;;12.15;88.45
50672;BME280;46021;55.882;37.654;2023-07-13T12:16:11;98578.59;;;12.18;88.60
50672;BME280;46021;55.882;37.654;2023-07-13T12:18:38;98581.16;;;12.19;89.39
50672;BME280;46021;55.882;37.654;2023-07-13T12:21:09;98577.44;;;12.23;89.29
50672;BME280;46021;55.882;37.654;2023-07-13T12:23:43;98578.94;;;12.27;88.96
50672;BME280;46021;55.882;37.654;2023-07-13T12:26:11;98573.78;;;12.26;89.41
50672;BME280;46021;55.882;37.654;2023-07-13T12:28:44;98566.78;;;12.26;89.52
50672;BME280;46021;55.882;37.654;2023-07-13T12:31:34;98572.69;;;12.30;89.22
50672;BME280;46021;55.882;37.654;2023-07-13T12:34:07;98562.59;;;12.24;90.04
50672;BME280;46021;55.882;37.654;2023-07-13T12:36:37;98563.09;;;12.31;90.15
50672;BME280;46021;55.882;37.654;2023-07-13T12:39:14;98567.13;;;12.36;90.07
50672;BME280;46021;55.882;37.654;2023-07-13T12:41:42;98562.66;;;12.38;90.02
50672;BME280;46021;55.882;37.654;2023-07-13T12:44:15;98565.44;;;12.35;90.07
50672;BME280;46021;55.882;37.654;2023-07-13T12:46:53;98566.94;;;12.39;90.60
50672;BME280;46021;55.882;37.654;2023-07-13T12:49:25;98566.19;;;12.37;90.30
50672;BME280;46021;55.882;37.654;2023-07-13T12:51:59;98562.53;;;12.40;90.51
50672;BME280;46021;55.882;37.654;2023-07-13T12:54:28;98559.84;;;12.41;90.35
50672;BME280;46021;55.882;37.654;2023-07-13T12:56:57;98557.22;;;12.41;90.54
50672;BME280;46021;55.882;37.654;2023-07-13T12:59:31;98563.88;;;12.47;90.78
50672;BME280;46021;55.882;37.654;2023-07-13T13:02:04;98563.97;;;12.45;90.50